Kingsville Naval Air Station
KNQI : now visible

Airfield :











YOU CAN JOIN US ON...

 
LOGIN :

Register | Disclaimer

   EN    FR    IT 

 









Legend :    VFR   Marginal VFR   IFR   Intensive IFR   Very Intensive IFR
Visi :
Ceiling :
>= 8 km
>= 3000ft
5 to 8 km
1000 to 3000 ft
1500m to 5 km
500 to 1000 ft
800 to 1500m
200 to 500 ft
< 800m
< 200 ft
Symbols :   Thunderstorms  Fog  Heavy snow  Heavy precipitations  Wind > 20 kt






- Airport Elevation : 50 ft


KNQI - Kingsville Naval Air Station

CURRENT METAR :
  • 232256Z AUTO 14012KT 10SM CLR 29/22 A2980 RMK AO2 SLP086 T02890217 $

EXPIRED METARs :
  • 232156Z AUTO 12012KT 10SM FEW028 30/22 A2981 RMK AO2 SLP090 T03000222 $
  • 232056Z AUTO 15014KT 10SM CLR 31/22 A2982 RMK AO2 SLP094 T03110217 56028 $

Expired Forecast.
KZHU FIR / North America



MET'MAP, your aeronautical weather chart ! - Copyright ORBIFLY December 2007 - Disclaimer

ORBIFLY MET'MAP TEAM :

Programming & Development : Alexandra Zaïnal
Concept & original design : Baudouin d'Aumeries
Assistance for programming : Marc-Olivier Méhu
Technical & hardware support : Manuel Goepfert

Contact : metmap@orbifly.com




SOURCES & CREDITS :

   NOAA       Earth
Advisory